sensor_id;sensor_type;location;lat;lon;timestamp;P1;durP1;ratioP1;P2;durP2;ratioP2
4867;SDS011;2448;48.086;10.862;2023-02-15T00:01:17;18.73;;;3.10;;
4867;SDS011;2448;48.086;10.862;2023-02-15T00:03:42;4.10;;;2.07;;
4867;SDS011;2448;48.086;10.862;2023-02-15T00:06:08;15.47;;;2.63;;
4867;SDS011;2448;48.086;10.862;2023-02-15T00:08:33;5.60;;;2.90;;
4867;SDS011;2448;48.086;10.862;2023-02-15T00:11:09;4.00;;;2.60;;
4867;SDS011;2448;48.086;10.862;2023-02-15T00:13:34;2.97;;;2.73;;
4867;SDS011;2448;48.086;10.862;2023-02-15T00:16:19;8.43;;;2.43;;
4867;SDS011;2448;48.086;10.862;2023-02-15T00:18:44;3.43;;;2.77;;
4867;SDS011;2448;48.086;10.862;2023-02-15T00:21:09;19.10;;;3.13;;
4867;SDS011;2448;48.086;10.862;2023-02-15T00:23:35;3.13;;;2.83;;
4867;SDS011;2448;48.086;10.862;2023-02-15T00:28:29;12.53;;;3.33;;
4867;SDS011;2448;48.086;10.862;2023-02-15T00:31:02;3.40;;;2.80;;
4867;SDS011;2448;48.086;10.862;2023-02-15T00:33:27;2.60;;;2.50;;
4867;SDS011;2448;48.086;10.862;2023-02-15T00:35:57;3.00;;;2.80;;
4867;SDS011;2448;48.086;10.862;2023-02-15T00:38:22;4.77;;;2.50;;
4867;SDS011;2448;48.086;10.862;2023-02-15T00:40:52;5.57;;;3.30;;
4867;SDS011;2448;48.086;10.862;2023-02-15T00:43:17;2.57;;;2.47;;
4867;SDS011;2448;48.086;10.862;2023-02-15T00:45:44;3.70;;;3.40;;
4867;SDS011;2448;48.086;10.862;2023-02-15T00:48:10;2.73;;;2.53;;
4867;SDS011;2448;48.086;10.862;2023-02-15T00:50:36;38.50;;;2.20;;
4867;SDS011;2448;48.086;10.862;2023-02-15T00:53:02;2.90;;;2.80;;
4867;SDS011;2448;48.086;10.862;2023-02-15T00:55:27;4.10;;;2.30;;
4867;SDS011;2448;48.086;10.862;2023-02-15T00:57:52;4.73;;;3.77;;
4867;SDS011;2448;48.086;10.862;2023-02-15T01:00:18;2.37;;;2.17;;
4867;SDS011;2448;48.086;10.862;2023-02-15T01:02:43;1.83;;;1.83;;
4867;SDS011;2448;48.086;10.862;2023-02-15T01:05:08;2.60;;;2.40;;
4867;SDS011;2448;48.086;10.862;2023-02-15T01:07:34;6.07;;;2.37;;
4867;SDS011;2448;48.086;10.862;2023-02-15T01:09:59;36.77;;;2.43;;
4867;SDS011;2448;48.086;10.862;2023-02-15T01:12:25;2.47;;;2.37;;
4867;SDS011;2448;48.086;10.862;2023-02-15T01:14:50;2.37;;;2.17;;
4867;SDS011;2448;48.086;10.862;2023-02-15T01:17:15;3.40;;;2.90;;
4867;SDS011;2448;48.086;10.862;2023-02-15T01:19:41;2.83;;;2.50;;
4867;SDS011;2448;48.086;10.862;2023-02-15T01:22:06;3.00;;;2.70;;
4867;SDS011;2448;48.086;10.862;2023-02-15T01:24:34;2.53;;;2.40;;
4867;SDS011;2448;48.086;10.862;2023-02-15T01:27:01;2.60;;;2.50;;
4867;SDS011;2448;48.086;10.862;2023-02-15T01:29:26;2.60;;;2.40;;
4867;SDS011;2448;48.086;10.862;2023-02-15T01:31:52;3.37;;;3.00;;
4867;SDS011;2448;48.086;10.862;2023-02-15T01:34:18;2.30;;;2.17;;
4867;SDS011;2448;48.086;10.862;2023-02-15T01:36:43;3.50;;;3.20;;
4867;SDS011;2448;48.086;10.862;2023-02-15T01:39:08;2.17;;;2.03;;
4867;SDS011;2448;48.086;10.862;2023-02-15T01:41:35;2.80;;;2.67;;
4867;SDS011;2448;48.086;10.862;2023-02-15T01:44:01;6.03;;;3.77;;
4867;SDS011;2448;48.086;10.862;2023-02-15T01:46:35;5.07;;;4.20;;
4867;SDS011;2448;48.086;10.862;2023-02-15T01:49:07;3.00;;;2.80;;
4867;SDS011;2448;48.086;10.862;2023-02-15T01:51:34;5.50;;;3.10;;
4867;SDS011;2448;48.086;10.862;2023-02-15T01:54:06;5.10;;;2.73;;
4867;SDS011;2448;48.086;10.862;2023-02-15T01:56:35;3.70;;;2.83;;
4867;SDS011;2448;48.086;10.862;2023-02-15T01:59:03;3.10;;;2.90;;
4867;SDS011;2448;48.086;10.862;2023-02-15T02:01:30;2.87;;;2.77;;
4867;SDS011;2448;48.086;10.862;2023-02-15T02:04:02;2.63;;;1.97;;
4867;SDS011;2448;48.086;10.862;2023-02-15T02:06:30;3.57;;;2.33;;
4867;SDS011;2448;48.086;10.862;2023-02-15T02:08:57;3.30;;;2.80;;
4867;SDS011;2448;48.086;10.862;2023-02-15T02:11:23;2.90;;;2.67;;
4867;SDS011;2448;48.086;10.862;2023-02-15T02:13:49;3.50;;;3.20;;
4867;SDS011;2448;48.086;10.862;2023-02-15T02:18:50;2.80;;;2.70;;
4867;SDS011;2448;48.086;10.862;2023-02-15T02:29:32;4.30;;;3.90;;
4867;SDS011;2448;48.086;10.862;2023-02-15T02:42:22;3.00;;;2.80;;
4867;SDS011;2448;48.086;10.862;2023-02-15T02:44:51;2.53;;;2.33;;
4867;SDS011;2448;48.086;10.862;2023-02-15T02:47:25;3.77;;;2.40;;
4867;SDS011;2448;48.086;10.862;2023-02-15T02:49:59;2.20;;;2.07;;
4867;SDS011;2448;48.086;10.862;2023-02-15T02:55:03;8.37;;;2.90;;
4867;SDS011;2448;48.086;10.862;2023-02-15T02:57:29;3.37;;;3.17;;
4867;SDS011;2448;48.086;10.862;2023-02-15T02:59:56;4.03;;;3.43;;
4867;SDS011;2448;48.086;10.862;2023-02-15T03:02:27;5.33;;;3.83;;
4867;SDS011;2448;48.086;10.862;2023-02-15T03:04:58;2.73;;;2.53;;
4867;SDS011;2448;48.086;10.862;2023-02-15T03:07:29;4.27;;;3.40;;
4867;SDS011;2448;48.086;10.862;2023-02-15T03:09:57;17.37;;;3.50;;
4867;SDS011;2448;48.086;10.862;2023-02-15T03:12:27;2.93;;;2.80;;
4867;SDS011;2448;48.086;10.862;2023-02-15T03:14:56;6.33;;;3.53;;
4867;SDS011;2448;48.086;10.862;2023-02-15T03:17:23;5.00;;;2.67;;
4867;SDS011;2448;48.086;10.862;2023-02-15T03:19:51;3.60;;;3.30;;
4867;SDS011;2448;48.086;10.862;2023-02-15T03:22:20;3.23;;;3.00;;
4867;SDS011;2448;48.086;10.862;2023-02-15T03:27:27;3.60;;;3.23;;
4867;SDS011;2448;48.086;10.862;2023-02-15T03:29:56;3.00;;;2.80;;
4867;SDS011;2448;48.086;10.862;2023-02-15T03:32:23;2.67;;;2.47;;
4867;SDS011;2448;48.086;10.862;2023-02-15T03:34:49;6.27;;;2.70;;
4867;SDS011;2448;48.086;10.862;2023-02-15T03:39:45;2.57;;;2.47;;
4867;SDS011;2448;48.086;10.862;2023-02-15T03:44:49;10.67;;;3.70;;
4867;SDS011;2448;48.086;10.862;2023-02-15T03:47:17;3.50;;;3.17;;
4867;SDS011;2448;48.086;10.862;2023-02-15T03:49:52;4.07;;;3.00;;
4867;SDS011;2448;48.086;10.862;2023-02-15T03:52:18;2.23;;;2.13;;
4867;SDS011;2448;48.086;10.862;2023-02-15T03:54:45;2.37;;;2.30;;
4867;SDS011;2448;48.086;10.862;2023-02-15T03:57:13;2.53;;;2.40;;
4867;SDS011;2448;48.086;10.862;2023-02-15T03:59:57;23.37;;;3.77;;
4867;SDS011;2448;48.086;10.862;2023-02-15T04:05:09;2.47;;;2.37;;
4867;SDS011;2448;48.086;10.862;2023-02-15T04:07:35;12.40;;;4.30;;
4867;SDS011;2448;48.086;10.862;2023-02-15T04:10:00;5.73;;;3.23;;
4867;SDS011;2448;48.086;10.862;2023-02-15T04:12:44;3.47;;;3.17;;
4867;SDS011;2448;48.086;10.862;2023-02-15T04:15:11;3.50;;;2.53;;
4867;SDS011;2448;48.086;10.862;2023-02-15T04:17:56;11.30;;;3.57;;
4867;SDS011;2448;48.086;10.862;2023-02-15T04:20:21;2.30;;;2.10;;
4867;SDS011;2448;48.086;10.862;2023-02-15T04:23:06;2.90;;;2.80;;
4867;SDS011;2448;48.086;10.862;2023-02-15T04:25:50;1.83;;;1.77;;
4867;SDS011;2448;48.086;10.862;2023-02-15T04:28:16;2.93;;;2.73;;
4867;SDS011;2448;48.086;10.862;2023-02-15T04:30:41;3.10;;;2.90;;
4867;SDS011;2448;48.086;10.862;2023-02-15T04:33:06;3.17;;;2.73;;
4867;SDS011;2448;48.086;10.862;2023-02-15T04:35:32;3.43;;;2.87;;
4867;SDS011;2448;48.086;10.862;2023-02-15T04:37:58;2.33;;;2.23;;
4867;SDS011;2448;48.086;10.862;2023-02-15T04:40:24;1.73;;;1.73;;
4867;SDS011;2448;48.086;10.862;2023-02-15T04:42:49;3.23;;;2.93;;
4867;SDS011;2448;48.086;10.862;2023-02-15T04:45:15;1.80;;;1.70;;
4867;SDS011;2448;48.086;10.862;2023-02-15T04:47:40;2.47;;;2.37;;
4867;SDS011;2448;48.086;10.862;2023-02-15T04:50:06;2.40;;;2.20;;
4867;SDS011;2448;48.086;10.862;2023-02-15T04:52:31;2.67;;;2.50;;
4867;SDS011;2448;48.086;10.862;2023-02-15T04:54:57;3.60;;;2.90;;
4867;SDS011;2448;48.086;10.862;2023-02-15T04:57:22;4.77;;;2.30;;
4867;SDS011;2448;48.086;10.862;2023-02-15T04:59:48;2.40;;;2.07;;
4867;SDS011;2448;48.086;10.862;2023-02-15T05:02:13;73.83;;;3.83;;
4867;SDS011;2448;48.086;10.862;2023-02-15T05:04:38;9.60;;;2.97;;
4867;SDS011;2448;48.086;10.862;2023-02-15T05:07:04;3.57;;;2.20;;
4867;SDS011;2448;48.086;10.862;2023-02-15T05:09:29;2.57;;;2.37;;
4867;SDS011;2448;48.086;10.862;2023-02-15T05:11:55;19.03;;;3.07;;
4867;SDS011;2448;48.086;10.862;2023-02-15T05:14:20;2.20;;;2.00;;
4867;SDS011;2448;48.086;10.862;2023-02-15T05:16:46;3.03;;;2.73;;
4867;SDS011;2448;48.086;10.862;2023-02-15T05:19:11;2.57;;;2.37;;
4867;SDS011;2448;48.086;10.862;2023-02-15T05:21:36;3.63;;;2.93;;
4867;SDS011;2448;48.086;10.862;2023-02-15T05:24:02;4.00;;;2.60;;
4867;SDS011;2448;48.086;10.862;2023-02-15T05:26:47;3.93;;;3.63;;
4867;SDS011;2448;48.086;10.862;2023-02-15T05:29:31;2.73;;;2.63;;
4867;SDS011;2448;48.086;10.862;2023-02-15T05:31:57;4.60;;;3.63;;
4867;SDS011;2448;48.086;10.862;2023-02-15T05:34:22;4.27;;;2.33;;
4867;SDS011;2448;48.086;10.862;2023-02-15T05:36:47;3.53;;;2.97;;
4867;SDS011;2448;48.086;10.862;2023-02-15T05:39:13;4.27;;;3.90;;
4867;SDS011;2448;48.086;10.862;2023-02-15T05:41:38;2.50;;;2.30;;
4867;SDS011;2448;48.086;10.862;2023-02-15T05:44:03;3.23;;;3.03;;
4867;SDS011;2448;48.086;10.862;2023-02-15T05:46:29;6.23;;;3.97;;
4867;SDS011;2448;48.086;10.862;2023-02-15T05:48:55;2.73;;;2.50;;
4867;SDS011;2448;48.086;10.862;2023-02-15T05:51:20;3.00;;;2.80;;
4867;SDS011;2448;48.086;10.862;2023-02-15T05:53:45;3.60;;;3.27;;
4867;SDS011;2448;48.086;10.862;2023-02-15T05:56:11;4.57;;;3.10;;
4867;SDS011;2448;48.086;10.862;2023-02-15T05:58:40;3.07;;;2.80;;
4867;SDS011;2448;48.086;10.862;2023-02-15T06:01:09;3.03;;;2.70;;
4867;SDS011;2448;48.086;10.862;2023-02-15T06:03:35;3.80;;;3.50;;
4867;SDS011;2448;48.086;10.862;2023-02-15T06:06:00;4.63;;;3.37;;
4867;SDS011;2448;48.086;10.862;2023-02-15T06:08:25;2.13;;;2.00;;
4867;SDS011;2448;48.086;10.862;2023-02-15T06:10:51;2.30;;;2.13;;
4867;SDS011;2448;48.086;10.862;2023-02-15T06:13:16;5.30;;;4.37;;
4867;SDS011;2448;48.086;10.862;2023-02-15T06:15:42;2.90;;;2.53;;
4867;SDS011;2448;48.086;10.862;2023-02-15T06:18:07;4.13;;;3.73;;
4867;SDS011;2448;48.086;10.862;2023-02-15T06:20:32;4.00;;;2.63;;
4867;SDS011;2448;48.086;10.862;2023-02-15T06:22:58;3.43;;;2.83;;
4867;SDS011;2448;48.086;10.862;2023-02-15T06:25:23;4.93;;;3.73;;
4867;SDS011;2448;48.086;10.862;2023-02-15T06:27:49;2.40;;;2.30;;
4867;SDS011;2448;48.086;10.862;2023-02-15T06:30:15;3.83;;;2.50;;
4867;SDS011;2448;48.086;10.862;2023-02-15T06:32:40;4.80;;;2.70;;
4867;SDS011;2448;48.086;10.862;2023-02-15T06:35:06;4.30;;;2.30;;
4867;SDS011;2448;48.086;10.862;2023-02-15T06:37:31;2.83;;;2.60;;
4867;SDS011;2448;48.086;10.862;2023-02-15T06:39:57;3.23;;;3.00;;
4867;SDS011;2448;48.086;10.862;2023-02-15T06:42:22;3.00;;;2.73;;
4867;SDS011;2448;48.086;10.862;2023-02-15T06:44:48;3.80;;;2.33;;
4867;SDS011;2448;48.086;10.862;2023-02-15T06:47:13;5.70;;;3.90;;
4867;SDS011;2448;48.086;10.862;2023-02-15T06:49:38;4.87;;;3.33;;
4867;SDS011;2448;48.086;10.862;2023-02-15T06:52:04;4.23;;;3.20;;
4867;SDS011;2448;48.086;10.862;2023-02-15T06:54:29;2.70;;;2.50;;
4867;SDS011;2448;48.086;10.862;2023-02-15T06:56:55;3.63;;;3.37;;
4867;SDS011;2448;48.086;10.862;2023-02-15T06:59:20;4.03;;;3.43;;
4867;SDS011;2448;48.086;10.862;2023-02-15T07:01:46;5.93;;;4.20;;
4867;SDS011;2448;48.086;10.862;2023-02-15T07:04:11;4.40;;;4.20;;
4867;SDS011;2448;48.086;10.862;2023-02-15T07:06:37;6.57;;;4.37;;
4867;SDS011;2448;48.086;10.862;2023-02-15T07:09:02;6.57;;;5.40;;
4867;SDS011;2448;48.086;10.862;2023-02-15T07:11:28;4.73;;;4.20;;
4867;SDS011;2448;48.086;10.862;2023-02-15T07:14:12;4.83;;;4.00;;
4867;SDS011;2448;48.086;10.862;2023-02-15T07:16:37;6.50;;;5.60;;
4867;SDS011;2448;48.086;10.862;2023-02-15T07:19:03;5.13;;;4.63;;
4867;SDS011;2448;48.086;10.862;2023-02-15T07:21:28;6.53;;;5.37;;
4867;SDS011;2448;48.086;10.862;2023-02-15T07:23:55;12.30;;;7.83;;
4867;SDS011;2448;48.086;10.862;2023-02-15T07:26:21;16.87;;;8.77;;
4867;SDS011;2448;48.086;10.862;2023-02-15T07:28:46;16.37;;;9.50;;
4867;SDS011;2448;48.086;10.862;2023-02-15T07:31:12;9.33;;;6.80;;
4867;SDS011;2448;48.086;10.862;2023-02-15T07:33:37;14.00;;;8.40;;
4867;SDS011;2448;48.086;10.862;2023-02-15T07:36:03;9.50;;;6.43;;
4867;SDS011;2448;48.086;10.862;2023-02-15T07:38:36;11.07;;;6.67;;
4867;SDS011;2448;48.086;10.862;2023-02-15T07:41:02;8.87;;;7.00;;
4867;SDS011;2448;48.086;10.862;2023-02-15T07:43:28;9.30;;;6.23;;
4867;SDS011;2448;48.086;10.862;2023-02-15T07:45:54;9.77;;;6.43;;
4867;SDS011;2448;48.086;10.862;2023-02-15T07:48:23;9.63;;;7.10;;
4867;SDS011;2448;48.086;10.862;2023-02-15T07:50:48;9.73;;;6.73;;
4867;SDS011;2448;48.086;10.862;2023-02-15T07:53:14;9.37;;;6.67;;
4867;SDS011;2448;48.086;10.862;2023-02-15T07:55:39;15.80;;;6.57;;
4867;SDS011;2448;48.086;10.862;2023-02-15T07:58:05;10.37;;;7.30;;
4867;SDS011;2448;48.086;10.862;2023-02-15T08:00:30;10.60;;;7.30;;
4867;SDS011;2448;48.086;10.862;2023-02-15T08:03:15;10.30;;;6.70;;
4867;SDS011;2448;48.086;10.862;2023-02-15T08:05:41;12.10;;;7.07;;
4867;SDS011;2448;48.086;10.862;2023-02-15T08:08:07;9.83;;;6.37;;
4867;SDS011;2448;48.086;10.862;2023-02-15T08:10:33;10.00;;;7.33;;
4867;SDS011;2448;48.086;10.862;2023-02-15T08:13:18;24.50;;;6.90;;
4867;SDS011;2448;48.086;10.862;2023-02-15T08:15:47;13.27;;;7.93;;
4867;SDS011;2448;48.086;10.862;2023-02-15T08:18:13;11.47;;;7.73;;
4867;SDS011;2448;48.086;10.862;2023-02-15T08:20:38;13.17;;;8.33;;
4867;SDS011;2448;48.086;10.862;2023-02-15T08:23:03;14.83;;;9.47;;
4867;SDS011;2448;48.086;10.862;2023-02-15T08:25:29;13.90;;;8.13;;
4867;SDS011;2448;48.086;10.862;2023-02-15T08:27:54;9.77;;;7.30;;
4867;SDS011;2448;48.086;10.862;2023-02-15T08:30:20;13.03;;;8.70;;
4867;SDS011;2448;48.086;10.862;2023-02-15T08:32:45;13.97;;;8.73;;
4867;SDS011;2448;48.086;10.862;2023-02-15T08:35:11;16.73;;;8.33;;
4867;SDS011;2448;48.086;10.862;2023-02-15T08:37:37;23.40;;;9.83;;
4867;SDS011;2448;48.086;10.862;2023-02-15T08:40:02;17.80;;;10.20;;
4867;SDS011;2448;48.086;10.862;2023-02-15T08:42:27;16.53;;;9.43;;
4867;SDS011;2448;48.086;10.862;2023-02-15T08:44:53;16.03;;;10.27;;
4867;SDS011;2448;48.086;10.862;2023-02-15T08:47:18;17.43;;;8.80;;
4867;SDS011;2448;48.086;10.862;2023-02-15T08:49:44;14.40;;;8.30;;
4867;SDS011;2448;48.086;10.862;2023-02-15T08:52:09;17.60;;;9.87;;
4867;SDS011;2448;48.086;10.862;2023-02-15T08:54:34;17.87;;;8.63;;
4867;SDS011;2448;48.086;10.862;2023-02-15T08:57:00;10.23;;;7.10;;
4867;SDS011;2448;48.086;10.862;2023-02-15T08:59:25;17.30;;;7.47;;
4867;SDS011;2448;48.086;10.862;2023-02-15T09:01:52;10.53;;;6.53;;
4867;SDS011;2448;48.086;10.862;2023-02-15T09:04:17;10.37;;;6.87;;
4867;SDS011;2448;48.086;10.862;2023-02-15T09:06:43;19.80;;;7.83;;
4867;SDS011;2448;48.086;10.862;2023-02-15T09:09:09;12.00;;;8.00;;
4867;SDS011;2448;48.086;10.862;2023-02-15T09:11:36;11.53;;;8.20;;
4867;SDS011;2448;48.086;10.862;2023-02-15T09:14:04;11.83;;;7.50;;
4867;SDS011;2448;48.086;10.862;2023-02-15T09:16:30;16.90;;;8.63;;
4867;SDS011;2448;48.086;10.862;2023-02-15T09:18:56;14.90;;;9.00;;
4867;SDS011;2448;48.086;10.862;2023-02-15T09:21:26;12.70;;;8.10;;
4867;SDS011;2448;48.086;10.862;2023-02-15T09:23:54;14.70;;;9.30;;
4867;SDS011;2448;48.086;10.862;2023-02-15T09:26:21;11.40;;;7.50;;
4867;SDS011;2448;48.086;10.862;2023-02-15T09:28:47;12.50;;;8.03;;
4867;SDS011;2448;48.086;10.862;2023-02-15T09:31:17;11.50;;;8.20;;
4867;SDS011;2448;48.086;10.862;2023-02-15T09:33:43;14.10;;;8.63;;
4867;SDS011;2448;48.086;10.862;2023-02-15T09:36:20;12.50;;;7.90;;
4867;SDS011;2448;48.086;10.862;2023-02-15T09:39:34;17.23;;;8.13;;
4867;SDS011;2448;48.086;10.862;2023-02-15T09:52:03;19.40;;;11.20;;
4867;SDS011;2448;48.086;10.862;2023-02-15T09:59:49;12.20;;;8.17;;
4867;SDS011;2448;48.086;10.862;2023-02-15T10:08:03;12.80;;;7.73;;
4867;SDS011;2448;48.086;10.862;2023-02-15T10:13:04;10.83;;;6.70;;
4867;SDS011;2448;48.086;10.862;2023-02-15T10:23:25;7.23;;;6.50;;
4867;SDS011;2448;48.086;10.862;2023-02-15T10:31:25;8.30;;;5.90;;
4867;SDS011;2448;48.086;10.862;2023-02-15T10:33:55;12.13;;;6.83;;
4867;SDS011;2448;48.086;10.862;2023-02-15T10:38:59;7.77;;;6.10;;
4867;SDS011;2448;48.086;10.862;2023-02-15T10:49:05;9.70;;;6.27;;
4867;SDS011;2448;48.086;10.862;2023-02-15T10:57:23;14.30;;;7.07;;
4867;SDS011;2448;48.086;10.862;2023-02-15T10:59:46;6.80;;;5.33;;
4867;SDS011;2448;48.086;10.862;2023-02-15T11:07:33;9.13;;;6.00;;
4867;SDS011;2448;48.086;10.862;2023-02-15T11:12:31;8.00;;;6.17;;
4867;SDS011;2448;48.086;10.862;2023-02-15T11:15:00;12.63;;;6.10;;
4867;SDS011;2448;48.086;10.862;2023-02-15T11:17:33;7.03;;;5.90;;
4867;SDS011;2448;48.086;10.862;2023-02-15T11:22:28;14.10;;;6.17;;
4867;SDS011;2448;48.086;10.862;2023-02-15T11:24:54;6.70;;;5.90;;
4867;SDS011;2448;48.086;10.862;2023-02-15T11:27:27;14.33;;;5.80;;
4867;SDS011;2448;48.086;10.862;2023-02-15T11:30:04;10.80;;;6.17;;
4867;SDS011;2448;48.086;10.862;2023-02-15T11:32:32;9.50;;;6.30;;
4867;SDS011;2448;48.086;10.862;2023-02-15T11:37:28;8.83;;;5.83;;
4867;SDS011;2448;48.086;10.862;2023-02-15T11:39:55;16.17;;;6.67;;
4867;SDS011;2448;48.086;10.862;2023-02-15T11:42:23;10.10;;;6.10;;
4867;SDS011;2448;48.086;10.862;2023-02-15T11:44:54;8.90;;;6.20;;
4867;SDS011;2448;48.086;10.862;2023-02-15T11:47:21;13.77;;;5.87;;
4867;SDS011;2448;48.086;10.862;2023-02-15T11:49:46;7.50;;;5.73;;
4867;SDS011;2448;48.086;10.862;2023-02-15T11:52:13;15.93;;;6.20;;
4867;SDS011;2448;48.086;10.862;2023-02-15T11:54:41;13.47;;;6.07;;
4867;SDS011;2448;48.086;10.862;2023-02-15T11:57:11;6.07;;;5.20;;
4867;SDS011;2448;48.086;10.862;2023-02-15T11:59:40;5.73;;;5.00;;
4867;SDS011;2448;48.086;10.862;2023-02-15T12:02:17;7.07;;;5.27;;
4867;SDS011;2448;48.086;10.862;2023-02-15T12:04:44;9.07;;;6.27;;
4867;SDS011;2448;48.086;10.862;2023-02-15T12:07:15;8.53;;;5.77;;
4867;SDS011;2448;48.086;10.862;2023-02-15T12:09:50;8.40;;;6.00;;
4867;SDS011;2448;48.086;10.862;2023-02-15T12:14:48;8.80;;;5.43;;
4867;SDS011;2448;48.086;10.862;2023-02-15T12:17:14;6.17;;;5.20;;
4867;SDS011;2448;48.086;10.862;2023-02-15T12:19:41;6.97;;;5.30;;
4867;SDS011;2448;48.086;10.862;2023-02-15T12:22:17;5.30;;;4.80;;
4867;SDS011;2448;48.086;10.862;2023-02-15T12:24:44;5.30;;;4.80;;
4867;SDS011;2448;48.086;10.862;2023-02-15T12:27:43;5.70;;;4.17;;
4867;SDS011;2448;48.086;10.862;2023-02-15T12:30:44;6.30;;;4.77;;
4867;SDS011;2448;48.086;10.862;2023-02-15T12:32:51;5.60;;;4.50;;
4867;SDS011;2448;48.086;10.862;2023-02-15T12:38:05;5.00;;;4.10;;
4867;SDS011;2448;48.086;10.862;2023-02-15T12:40:56;3.77;;;3.37;;
4867;SDS011;2448;48.086;10.862;2023-02-15T12:45:53;3.93;;;3.23;;
4867;SDS011;2448;48.086;10.862;2023-02-15T12:48:19;3.77;;;3.40;;
4867;SDS011;2448;48.086;10.862;2023-02-15T12:50:45;5.27;;;3.90;;
4867;SDS011;2448;48.086;10.862;2023-02-15T12:55:44;6.13;;;3.93;;
4867;SDS011;2448;48.086;10.862;2023-02-15T12:58:18;4.67;;;3.47;;
4867;SDS011;2448;48.086;10.862;2023-02-15T13:00:43;3.20;;;2.97;;
4867;SDS011;2448;48.086;10.862;2023-02-15T13:03:19;3.97;;;3.53;;
4867;SDS011;2448;48.086;10.862;2023-02-15T13:05:48;6.63;;;3.40;;
4867;SDS011;2448;48.086;10.862;2023-02-15T13:08:16;5.93;;;3.80;;
4867;SDS011;2448;48.086;10.862;2023-02-15T13:10:51;4.27;;;3.83;;
4867;SDS011;2448;48.086;10.862;2023-02-15T13:13:21;4.93;;;3.70;;
4867;SDS011;2448;48.086;10.862;2023-02-15T13:15:48;4.20;;;3.53;;
4867;SDS011;2448;48.086;10.862;2023-02-15T13:18:16;5.00;;;3.80;;
4867;SDS011;2448;48.086;10.862;2023-02-15T13:20:42;4.13;;;3.60;;
4867;SDS011;2448;48.086;10.862;2023-02-15T13:23:26;6.70;;;3.67;;
4867;SDS011;2448;48.086;10.862;2023-02-15T13:25:58;6.10;;;3.87;;
4867;SDS011;2448;48.086;10.862;2023-02-15T13:28:26;5.90;;;4.00;;
4867;SDS011;2448;48.086;10.862;2023-02-15T13:30:53;4.43;;;3.83;;
4867;SDS011;2448;48.086;10.862;2023-02-15T13:33:34;7.10;;;4.33;;
4867;SDS011;2448;48.086;10.862;2023-02-15T13:38:46;8.83;;;4.80;;
4867;SDS011;2448;48.086;10.862;2023-02-15T13:41:16;6.70;;;4.50;;
4867;SDS011;2448;48.086;10.862;2023-02-15T13:43:48;8.67;;;5.03;;
4867;SDS011;2448;48.086;10.862;2023-02-15T13:51:31;4.97;;;3.90;;
4867;SDS011;2448;48.086;10.862;2023-02-15T13:54:05;5.27;;;4.27;;
4867;SDS011;2448;48.086;10.862;2023-02-15T14:07:03;8.43;;;5.57;;
4867;SDS011;2448;48.086;10.862;2023-02-15T14:19:39;10.50;;;6.90;;
4867;SDS011;2448;48.086;10.862;2023-02-15T14:22:18;9.80;;;6.40;;
4867;SDS011;2448;48.086;10.862;2023-02-15T14:24:52;10.90;;;7.20;;
4867;SDS011;2448;48.086;10.862;2023-02-15T14:27:27;6.53;;;5.50;;
4867;SDS011;2448;48.086;10.862;2023-02-15T14:30:00;14.00;;;7.70;;
4867;SDS011;2448;48.086;10.862;2023-02-15T14:32:27;8.53;;;6.17;;
4867;SDS011;2448;48.086;10.862;2023-02-15T14:34:55;9.20;;;6.43;;
4867;SDS011;2448;48.086;10.862;2023-02-15T14:37:27;8.57;;;5.60;;
4867;SDS011;2448;48.086;10.862;2023-02-15T14:40:06;11.03;;;6.47;;
4867;SDS011;2448;48.086;10.862;2023-02-15T14:43:05;9.77;;;7.00;;
4867;SDS011;2448;48.086;10.862;2023-02-15T14:45:40;10.60;;;6.30;;
4867;SDS011;2448;48.086;10.862;2023-02-15T14:48:16;11.77;;;6.30;;
4867;SDS011;2448;48.086;10.862;2023-02-15T14:50:45;10.57;;;6.13;;
4867;SDS011;2448;48.086;10.862;2023-02-15T14:55:39;11.50;;;6.83;;
4867;SDS011;2448;48.086;10.862;2023-02-15T14:58:09;9.37;;;6.40;;
4867;SDS011;2448;48.086;10.862;2023-02-15T15:00:39;8.90;;;7.10;;
4867;SDS011;2448;48.086;10.862;2023-02-15T15:03:19;9.30;;;6.40;;
4867;SDS011;2448;48.086;10.862;2023-02-15T15:05:47;10.30;;;6.47;;
4867;SDS011;2448;48.086;10.862;2023-02-15T15:08:21;10.67;;;7.10;;
4867;SDS011;2448;48.086;10.862;2023-02-15T15:10:47;9.50;;;6.70;;
4867;SDS011;2448;48.086;10.862;2023-02-15T15:16:23;10.93;;;7.23;;
4867;SDS011;2448;48.086;10.862;2023-02-15T15:18:43;11.87;;;7.23;;
4867;SDS011;2448;48.086;10.862;2023-02-15T15:21:08;10.53;;;6.57;;
4867;SDS011;2448;48.086;10.862;2023-02-15T15:23:43;11.87;;;7.40;;
4867;SDS011;2448;48.086;10.862;2023-02-15T15:26:22;10.90;;;6.60;;
4867;SDS011;2448;48.086;10.862;2023-02-15T15:36:13;9.40;;;6.60;;
4867;SDS011;2448;48.086;10.862;2023-02-15T15:41:27;10.70;;;6.37;;
4867;SDS011;2448;48.086;10.862;2023-02-15T15:44:19;12.07;;;7.07;;
4867;SDS011;2448;48.086;10.862;2023-02-15T15:49:34;11.77;;;7.10;;
4867;SDS011;2448;48.086;10.862;2023-02-15T15:52:03;11.20;;;6.70;;
4867;SDS011;2448;48.086;10.862;2023-02-15T15:54:33;9.20;;;6.53;;
4867;SDS011;2448;48.086;10.862;2023-02-15T15:57:00;10.40;;;6.60;;
4867;SDS011;2448;48.086;10.862;2023-02-15T15:59:28;8.83;;;6.50;;
4867;SDS011;2448;48.086;10.862;2023-02-15T16:01:54;12.70;;;7.90;;
4867;SDS011;2448;48.086;10.862;2023-02-15T16:04:24;11.70;;;7.43;;
4867;SDS011;2448;48.086;10.862;2023-02-15T16:06:50;16.10;;;8.50;;
4867;SDS011;2448;48.086;10.862;2023-02-15T16:09:20;15.47;;;9.10;;
4867;SDS011;2448;48.086;10.862;2023-02-15T16:11:47;12.03;;;6.63;;
4867;SDS011;2448;48.086;10.862;2023-02-15T16:14:14;16.23;;;7.60;;
4867;SDS011;2448;48.086;10.862;2023-02-15T16:16:40;25.33;;;8.07;;
4867;SDS011;2448;48.086;10.862;2023-02-15T16:19:06;15.10;;;8.17;;
4867;SDS011;2448;48.086;10.862;2023-02-15T16:21:39;16.80;;;7.57;;
4867;SDS011;2448;48.086;10.862;2023-02-15T16:26:58;12.47;;;7.40;;
4867;SDS011;2448;48.086;10.862;2023-02-15T16:29:31;18.40;;;8.10;;
4867;SDS011;2448;48.086;10.862;2023-02-15T16:31:58;12.57;;;8.20;;
4867;SDS011;2448;48.086;10.862;2023-02-15T16:34:23;15.80;;;7.23;;
4867;SDS011;2448;48.086;10.862;2023-02-15T16:36:48;12.33;;;7.57;;
4867;SDS011;2448;48.086;10.862;2023-02-15T16:39:19;13.33;;;7.60;;
4867;SDS011;2448;48.086;10.862;2023-02-15T16:41:45;55.60;;;10.47;;
4867;SDS011;2448;48.086;10.862;2023-02-15T16:44:17;17.80;;;8.80;;
4867;SDS011;2448;48.086;10.862;2023-02-15T16:46:43;20.03;;;10.07;;
4867;SDS011;2448;48.086;10.862;2023-02-15T16:51:44;26.47;;;9.07;;
4867;SDS011;2448;48.086;10.862;2023-02-15T16:54:15;19.30;;;9.90;;
4867;SDS011;2448;48.086;10.862;2023-02-15T16:56:42;14.20;;;8.67;;
4867;SDS011;2448;48.086;10.862;2023-02-15T16:59:13;13.13;;;8.17;;
4867;SDS011;2448;48.086;10.862;2023-02-15T17:01:41;14.20;;;7.80;;
4867;SDS011;2448;48.086;10.862;2023-02-15T17:07:12;34.77;;;12.40;;
4867;SDS011;2448;48.086;10.862;2023-02-15T17:09:39;22.00;;;9.43;;
4867;SDS011;2448;48.086;10.862;2023-02-15T17:12:13;20.57;;;9.43;;
4867;SDS011;2448;48.086;10.862;2023-02-15T17:14:58;16.27;;;10.27;;
4867;SDS011;2448;48.086;10.862;2023-02-15T17:17:23;16.27;;;9.73;;
4867;SDS011;2448;48.086;10.862;2023-02-15T17:19:50;16.23;;;8.30;;
4867;SDS011;2448;48.086;10.862;2023-02-15T17:22:18;26.87;;;10.77;;
4867;SDS011;2448;48.086;10.862;2023-02-15T17:24:44;24.87;;;12.27;;
4867;SDS011;2448;48.086;10.862;2023-02-15T17:27:20;21.63;;;11.70;;
4867;SDS011;2448;48.086;10.862;2023-02-15T17:29:48;20.07;;;12.00;;
4867;SDS011;2448;48.086;10.862;2023-02-15T17:32:20;21.37;;;11.00;;
4867;SDS011;2448;48.086;10.862;2023-02-15T17:35:01;18.43;;;11.00;;
4867;SDS011;2448;48.086;10.862;2023-02-15T17:40:07;15.40;;;9.50;;
4867;SDS011;2448;48.086;10.862;2023-02-15T17:42:33;23.77;;;10.87;;
4867;SDS011;2448;48.086;10.862;2023-02-15T17:44:58;20.90;;;10.47;;
4867;SDS011;2448;48.086;10.862;2023-02-15T17:47:23;15.70;;;10.37;;
4867;SDS011;2448;48.086;10.862;2023-02-15T17:49:51;22.33;;;10.90;;
4867;SDS011;2448;48.086;10.862;2023-02-15T17:52:17;18.63;;;10.60;;
4867;SDS011;2448;48.086;10.862;2023-02-15T17:54:43;18.33;;;9.73;;